sensor_id;sensor_type;location;lat;lon;timestamp;P1;durP1;ratioP1;P2;durP2;ratioP2
37787;SDS011;23627;53.302;-6.362;2023-05-29T00:00:50;4.63;;;1.58;;
37787;SDS011;23627;53.302;-6.362;2023-05-29T00:03:17;4.68;;;1.30;;
37787;SDS011;23627;53.302;-6.362;2023-05-29T00:05:43;4.38;;;1.48;;
37787;SDS011;23627;53.302;-6.362;2023-05-29T00:08:09;4.55;;;1.40;;
37787;SDS011;23627;53.302;-6.362;2023-05-29T00:10:35;3.75;;;1.35;;
37787;SDS011;23627;53.302;-6.362;2023-05-29T00:13:02;5.78;;;1.55;;
37787;SDS011;23627;53.302;-6.362;2023-05-29T00:15:28;4.47;;;1.70;;
37787;SDS011;23627;53.302;-6.362;2023-05-29T00:17:55;3.58;;;1.30;;
37787;SDS011;23627;53.302;-6.362;2023-05-29T00:20:21;4.40;;;1.48;;
37787;SDS011;23627;53.302;-6.362;2023-05-29T00:22:47;4.75;;;1.70;;
37787;SDS011;23627;53.302;-6.362;2023-05-29T00:25:14;4.50;;;1.65;;
37787;SDS011;23627;53.302;-6.362;2023-05-29T00:27:40;5.32;;;1.70;;
37787;SDS011;23627;53.302;-6.362;2023-05-29T00:30:07;5.55;;;1.67;;
37787;SDS011;23627;53.302;-6.362;2023-05-29T00:32:33;4.78;;;1.60;;
37787;SDS011;23627;53.302;-6.362;2023-05-29T00:34:58;4.93;;;1.52;;
37787;SDS011;23627;53.302;-6.362;2023-05-29T00:37:24;4.97;;;1.55;;
37787;SDS011;23627;53.302;-6.362;2023-05-29T00:39:50;4.53;;;1.25;;
37787;SDS011;23627;53.302;-6.362;2023-05-29T00:42:16;4.55;;;1.50;;
37787;SDS011;23627;53.302;-6.362;2023-05-29T00:44:42;3.70;;;1.20;;
37787;SDS011;23627;53.302;-6.362;2023-05-29T00:47:08;3.90;;;1.60;;
37787;SDS011;23627;53.302;-6.362;2023-05-29T00:49:34;4.72;;;1.55;;
37787;SDS011;23627;53.302;-6.362;2023-05-29T00:52:02;5.10;;;1.60;;
37787;SDS011;23627;53.302;-6.362;2023-05-29T00:54:32;5.05;;;1.50;;
37787;SDS011;23627;53.302;-6.362;2023-05-29T00:56:58;5.20;;;1.73;;
37787;SDS011;23627;53.302;-6.362;2023-05-29T00:59:28;4.72;;;1.40;;
37787;SDS011;23627;53.302;-6.362;2023-05-29T01:01:55;4.47;;;1.23;;
37787;SDS011;23627;53.302;-6.362;2023-05-29T01:04:23;4.60;;;1.35;;
37787;SDS011;23627;53.302;-6.362;2023-05-29T01:06:50;5.57;;;1.52;;
37787;SDS011;23627;53.302;-6.362;2023-05-29T01:09:16;6.22;;;1.30;;
37787;SDS011;23627;53.302;-6.362;2023-05-29T01:14:23;5.15;;;1.63;;
37787;SDS011;23627;53.302;-6.362;2023-05-29T01:17:03;5.10;;;1.50;;
37787;SDS011;23627;53.302;-6.362;2023-05-29T01:20:13;5.93;;;1.70;;
37787;SDS011;23627;53.302;-6.362;2023-05-29T01:22:54;4.60;;;1.60;;
37787;SDS011;23627;53.302;-6.362;2023-05-29T01:28:37;4.03;;;1.40;;
37787;SDS011;23627;53.302;-6.362;2023-05-29T01:31:06;4.18;;;1.58;;
37787;SDS011;23627;53.302;-6.362;2023-05-29T01:33:33;4.13;;;1.50;;
37787;SDS011;23627;53.302;-6.362;2023-05-29T01:35:59;5.60;;;1.58;;
37787;SDS011;23627;53.302;-6.362;2023-05-29T01:38:24;5.80;;;1.77;;
37787;SDS011;23627;53.302;-6.362;2023-05-29T01:40:50;4.07;;;1.30;;
37787;SDS011;23627;53.302;-6.362;2023-05-29T01:43:16;5.63;;;1.42;;
37787;SDS011;23627;53.302;-6.362;2023-05-29T01:45:42;5.28;;;1.50;;
37787;SDS011;23627;53.302;-6.362;2023-05-29T01:48:09;7.10;;;1.80;;
37787;SDS011;23627;53.302;-6.362;2023-05-29T01:50:34;7.03;;;1.42;;
37787;SDS011;23627;53.302;-6.362;2023-05-29T01:53:01;4.90;;;1.40;;
37787;SDS011;23627;53.302;-6.362;2023-05-29T01:55:27;3.83;;;1.50;;
37787;SDS011;23627;53.302;-6.362;2023-05-29T01:57:53;5.03;;;1.42;;
37787;SDS011;23627;53.302;-6.362;2023-05-29T02:00:20;4.13;;;1.77;;
37787;SDS011;23627;53.302;-6.362;2023-05-29T02:02:45;4.90;;;1.50;;
37787;SDS011;23627;53.302;-6.362;2023-05-29T02:05:11;3.47;;;1.58;;
37787;SDS011;23627;53.302;-6.362;2023-05-29T02:07:37;4.97;;;1.30;;
37787;SDS011;23627;53.302;-6.362;2023-05-29T02:10:04;3.63;;;1.50;;
37787;SDS011;23627;53.302;-6.362;2023-05-29T02:12:30;3.63;;;1.42;;
37787;SDS011;23627;53.302;-6.362;2023-05-29T02:14:56;3.72;;;1.38;;
37787;SDS011;23627;53.302;-6.362;2023-05-29T02:17:22;4.88;;;1.73;;
37787;SDS011;23627;53.302;-6.362;2023-05-29T02:19:49;4.15;;;1.40;;
37787;SDS011;23627;53.302;-6.362;2023-05-29T02:22:15;4.40;;;1.27;;
37787;SDS011;23627;53.302;-6.362;2023-05-29T02:24:42;6.20;;;1.38;;
37787;SDS011;23627;53.302;-6.362;2023-05-29T02:27:08;3.67;;;1.45;;
37787;SDS011;23627;53.302;-6.362;2023-05-29T02:29:34;5.00;;;1.67;;
37787;SDS011;23627;53.302;-6.362;2023-05-29T02:32:00;5.10;;;1.33;;
37787;SDS011;23627;53.302;-6.362;2023-05-29T02:34:26;3.95;;;1.33;;
37787;SDS011;23627;53.302;-6.362;2023-05-29T02:36:51;5.65;;;1.52;;
37787;SDS011;23627;53.302;-6.362;2023-05-29T02:39:18;6.20;;;1.63;;
37787;SDS011;23627;53.302;-6.362;2023-05-29T02:41:44;5.50;;;1.55;;
37787;SDS011;23627;53.302;-6.362;2023-05-29T02:44:10;6.95;;;1.73;;
37787;SDS011;23627;53.302;-6.362;2023-05-29T02:46:36;3.67;;;1.30;;
37787;SDS011;23627;53.302;-6.362;2023-05-29T02:49:01;5.55;;;1.45;;
37787;SDS011;23627;53.302;-6.362;2023-05-29T02:51:27;3.63;;;1.35;;
37787;SDS011;23627;53.302;-6.362;2023-05-29T02:53:53;3.67;;;1.63;;
37787;SDS011;23627;53.302;-6.362;2023-05-29T02:56:19;5.97;;;1.67;;
37787;SDS011;23627;53.302;-6.362;2023-05-29T02:58:49;5.25;;;1.40;;
37787;SDS011;23627;53.302;-6.362;2023-05-29T03:01:18;3.35;;;1.50;;
37787;SDS011;23627;53.302;-6.362;2023-05-29T03:03:44;5.60;;;1.42;;
37787;SDS011;23627;53.302;-6.362;2023-05-29T03:06:10;3.72;;;1.45;;
37787;SDS011;23627;53.302;-6.362;2023-05-29T03:08:37;5.25;;;1.20;;
37787;SDS011;23627;53.302;-6.362;2023-05-29T03:11:07;6.10;;;1.38;;
37787;SDS011;23627;53.302;-6.362;2023-05-29T03:13:36;4.85;;;1.30;;
37787;SDS011;23627;53.302;-6.362;2023-05-29T03:16:02;5.13;;;1.50;;
37787;SDS011;23627;53.302;-6.362;2023-05-29T03:18:28;5.05;;;1.60;;
37787;SDS011;23627;53.302;-6.362;2023-05-29T03:20:54;3.95;;;1.40;;
37787;SDS011;23627;53.302;-6.362;2023-05-29T03:23:19;4.15;;;1.35;;
37787;SDS011;23627;53.302;-6.362;2023-05-29T03:25:45;5.63;;;1.73;;
37787;SDS011;23627;53.302;-6.362;2023-05-29T03:28:11;6.47;;;1.40;;
37787;SDS011;23627;53.302;-6.362;2023-05-29T03:30:37;4.18;;;1.30;;
37787;SDS011;23627;53.302;-6.362;2023-05-29T03:33:02;5.63;;;1.45;;
37787;SDS011;23627;53.302;-6.362;2023-05-29T03:35:31;5.35;;;1.20;;
37787;SDS011;23627;53.302;-6.362;2023-05-29T03:37:58;5.63;;;1.38;;
37787;SDS011;23627;53.302;-6.362;2023-05-29T03:40:23;6.32;;;1.55;;
37787;SDS011;23627;53.302;-6.362;2023-05-29T03:42:49;5.68;;;1.33;;
37787;SDS011;23627;53.302;-6.362;2023-05-29T03:45:16;3.83;;;1.30;;
37787;SDS011;23627;53.302;-6.362;2023-05-29T03:47:41;4.60;;;1.20;;
37787;SDS011;23627;53.302;-6.362;2023-05-29T03:50:07;5.15;;;1.73;;
37787;SDS011;23627;53.302;-6.362;2023-05-29T03:52:33;4.43;;;1.40;;
37787;SDS011;23627;53.302;-6.362;2023-05-29T03:54:59;4.75;;;1.40;;
37787;SDS011;23627;53.302;-6.362;2023-05-29T03:57:25;5.78;;;1.40;;
37787;SDS011;23627;53.302;-6.362;2023-05-29T03:59:51;3.72;;;1.30;;
37787;SDS011;23627;53.302;-6.362;2023-05-29T04:02:17;2.85;;;1.20;;
37787;SDS011;23627;53.302;-6.362;2023-05-29T04:04:43;4.75;;;1.48;;
37787;SDS011;23627;53.302;-6.362;2023-05-29T04:07:09;5.53;;;1.85;;
37787;SDS011;23627;53.302;-6.362;2023-05-29T04:09:36;6.65;;;1.80;;
37787;SDS011;23627;53.302;-6.362;2023-05-29T04:12:02;5.68;;;1.52;;
37787;SDS011;23627;53.302;-6.362;2023-05-29T04:14:28;5.07;;;1.60;;
37787;SDS011;23627;53.302;-6.362;2023-05-29T04:16:54;7.68;;;1.40;;
37787;SDS011;23627;53.302;-6.362;2023-05-29T04:19:19;4.60;;;1.75;;
37787;SDS011;23627;53.302;-6.362;2023-05-29T04:21:46;4.60;;;1.30;;
37787;SDS011;23627;53.302;-6.362;2023-05-29T04:24:13;4.72;;;1.55;;
37787;SDS011;23627;53.302;-6.362;2023-05-29T04:26:39;4.70;;;1.35;;
37787;SDS011;23627;53.302;-6.362;2023-05-29T04:29:06;5.65;;;1.98;;
37787;SDS011;23627;53.302;-6.362;2023-05-29T04:31:32;3.95;;;1.30;;
37787;SDS011;23627;53.302;-6.362;2023-05-29T04:33:58;4.22;;;1.30;;
37787;SDS011;23627;53.302;-6.362;2023-05-29T04:36:25;4.07;;;1.42;;
37787;SDS011;23627;53.302;-6.362;2023-05-29T04:38:54;4.72;;;1.60;;
37787;SDS011;23627;53.302;-6.362;2023-05-29T04:41:22;6.20;;;1.63;;
37787;SDS011;23627;53.302;-6.362;2023-05-29T04:43:49;5.43;;;1.73;;
37787;SDS011;23627;53.302;-6.362;2023-05-29T04:46:16;4.88;;;1.63;;
37787;SDS011;23627;53.302;-6.362;2023-05-29T04:48:42;4.40;;;1.60;;
37787;SDS011;23627;53.302;-6.362;2023-05-29T04:51:09;5.15;;;1.40;;
37787;SDS011;23627;53.302;-6.362;2023-05-29T04:53:37;4.95;;;1.70;;
37787;SDS011;23627;53.302;-6.362;2023-05-29T04:56:05;5.55;;;1.58;;
37787;SDS011;23627;53.302;-6.362;2023-05-29T04:58:30;2.88;;;1.30;;
37787;SDS011;23627;53.302;-6.362;2023-05-29T05:00:56;7.43;;;1.55;;
37787;SDS011;23627;53.302;-6.362;2023-05-29T05:03:24;6.00;;;1.85;;
37787;SDS011;23627;53.302;-6.362;2023-05-29T05:05:50;6.00;;;1.77;;
37787;SDS011;23627;53.302;-6.362;2023-05-29T05:08:17;5.65;;;1.55;;
37787;SDS011;23627;53.302;-6.362;2023-05-29T05:10:43;5.82;;;1.83;;
37787;SDS011;23627;53.302;-6.362;2023-05-29T05:13:08;3.55;;;1.30;;
37787;SDS011;23627;53.302;-6.362;2023-05-29T05:15:36;4.55;;;1.42;;
37787;SDS011;23627;53.302;-6.362;2023-05-29T05:18:02;4.88;;;1.50;;
37787;SDS011;23627;53.302;-6.362;2023-05-29T05:20:27;5.88;;;1.70;;
37787;SDS011;23627;53.302;-6.362;2023-05-29T05:22:53;6.10;;;1.65;;
37787;SDS011;23627;53.302;-6.362;2023-05-29T05:25:20;5.70;;;1.50;;
37787;SDS011;23627;53.302;-6.362;2023-05-29T05:27:46;3.47;;;1.40;;
37787;SDS011;23627;53.302;-6.362;2023-05-29T05:30:12;5.78;;;1.80;;
37787;SDS011;23627;53.302;-6.362;2023-05-29T05:32:38;4.80;;;1.55;;
37787;SDS011;23627;53.302;-6.362;2023-05-29T05:35:04;6.68;;;1.83;;
37787;SDS011;23627;53.302;-6.362;2023-05-29T05:37:30;7.18;;;1.52;;
37787;SDS011;23627;53.302;-6.362;2023-05-29T05:39:56;4.88;;;1.70;;
37787;SDS011;23627;53.302;-6.362;2023-05-29T05:42:23;5.85;;;1.90;;
37787;SDS011;23627;53.302;-6.362;2023-05-29T05:44:49;7.70;;;2.40;;
37787;SDS011;23627;53.302;-6.362;2023-05-29T05:47:14;5.97;;;2.22;;
37787;SDS011;23627;53.302;-6.362;2023-05-29T05:49:40;6.63;;;1.92;;
37787;SDS011;23627;53.302;-6.362;2023-05-29T05:52:06;8.13;;;2.28;;
37787;SDS011;23627;53.302;-6.362;2023-05-29T05:54:32;7.80;;;2.10;;
37787;SDS011;23627;53.302;-6.362;2023-05-29T05:56:57;6.07;;;2.00;;
37787;SDS011;23627;53.302;-6.362;2023-05-29T05:59:23;7.05;;;2.10;;
37787;SDS011;23627;53.302;-6.362;2023-05-29T06:01:49;7.55;;;2.50;;
37787;SDS011;23627;53.302;-6.362;2023-05-29T06:04:15;5.65;;;2.20;;
37787;SDS011;23627;53.302;-6.362;2023-05-29T06:06:40;5.97;;;2.67;;
37787;SDS011;23627;53.302;-6.362;2023-05-29T06:09:06;5.68;;;2.28;;
37787;SDS011;23627;53.302;-6.362;2023-05-29T06:11:32;6.35;;;2.40;;
37787;SDS011;23627;53.302;-6.362;2023-05-29T06:13:58;6.68;;;2.45;;
37787;SDS011;23627;53.302;-6.362;2023-05-29T06:16:24;10.05;;;3.00;;
37787;SDS011;23627;53.302;-6.362;2023-05-29T06:18:50;6.50;;;2.88;;
37787;SDS011;23627;53.302;-6.362;2023-05-29T06:21:16;6.88;;;2.90;;
37787;SDS011;23627;53.302;-6.362;2023-05-29T06:23:41;7.75;;;2.65;;
37787;SDS011;23627;53.302;-6.362;2023-05-29T06:26:07;6.38;;;2.80;;
37787;SDS011;23627;53.302;-6.362;2023-05-29T06:28:33;8.93;;;2.85;;
37787;SDS011;23627;53.302;-6.362;2023-05-29T06:30:59;6.20;;;2.42;;
37787;SDS011;23627;53.302;-6.362;2023-05-29T06:33:24;7.65;;;2.55;;
37787;SDS011;23627;53.302;-6.362;2023-05-29T06:35:50;9.75;;;2.83;;
37787;SDS011;23627;53.302;-6.362;2023-05-29T06:38:16;6.40;;;2.90;;
37787;SDS011;23627;53.302;-6.362;2023-05-29T06:40:42;8.80;;;2.83;;
37787;SDS011;23627;53.302;-6.362;2023-05-29T06:43:08;8.75;;;2.88;;
37787;SDS011;23627;53.302;-6.362;2023-05-29T06:45:37;8.10;;;2.75;;
37787;SDS011;23627;53.302;-6.362;2023-05-29T06:48:03;7.50;;;2.70;;
37787;SDS011;23627;53.302;-6.362;2023-05-29T06:50:28;7.00;;;3.17;;
37787;SDS011;23627;53.302;-6.362;2023-05-29T06:52:54;4.72;;;2.50;;
37787;SDS011;23627;53.302;-6.362;2023-05-29T06:55:20;7.90;;;2.78;;
37787;SDS011;23627;53.302;-6.362;2023-05-29T06:57:46;6.65;;;2.80;;
37787;SDS011;23627;53.302;-6.362;2023-05-29T07:00:12;8.90;;;3.22;;
37787;SDS011;23627;53.302;-6.362;2023-05-29T07:02:38;8.10;;;2.85;;
37787;SDS011;23627;53.302;-6.362;2023-05-29T07:05:04;9.55;;;2.88;;
37787;SDS011;23627;53.302;-6.362;2023-05-29T07:07:30;6.25;;;2.35;;
37787;SDS011;23627;53.302;-6.362;2023-05-29T07:09:56;6.63;;;2.65;;
37787;SDS011;23627;53.302;-6.362;2023-05-29T07:12:22;6.43;;;2.33;;
37787;SDS011;23627;53.302;-6.362;2023-05-29T07:14:51;7.38;;;2.92;;
37787;SDS011;23627;53.302;-6.362;2023-05-29T07:17:23;6.07;;;2.75;;
37787;SDS011;23627;53.302;-6.362;2023-05-29T07:20:10;5.50;;;2.58;;
37787;SDS011;23627;53.302;-6.362;2023-05-29T07:22:41;7.00;;;2.90;;
37787;SDS011;23627;53.302;-6.362;2023-05-29T07:25:08;5.13;;;2.45;;
37787;SDS011;23627;53.302;-6.362;2023-05-29T07:27:36;6.78;;;2.20;;
37787;SDS011;23627;53.302;-6.362;2023-05-29T07:30:03;4.50;;;2.38;;
37787;SDS011;23627;53.302;-6.362;2023-05-29T07:32:31;7.38;;;2.50;;
37787;SDS011;23627;53.302;-6.362;2023-05-29T07:35:16;6.63;;;2.25;;
37787;SDS011;23627;53.302;-6.362;2023-05-29T07:37:48;7.55;;;2.58;;
37787;SDS011;23627;53.302;-6.362;2023-05-29T07:40:20;6.53;;;2.78;;
37787;SDS011;23627;53.302;-6.362;2023-05-29T07:43:00;7.28;;;2.83;;
37787;SDS011;23627;53.302;-6.362;2023-05-29T07:45:27;7.00;;;2.50;;
37787;SDS011;23627;53.302;-6.362;2023-05-29T07:47:53;4.95;;;2.42;;
37787;SDS011;23627;53.302;-6.362;2023-05-29T07:50:20;5.80;;;2.50;;
37787;SDS011;23627;53.302;-6.362;2023-05-29T07:52:46;5.05;;;2.38;;
37787;SDS011;23627;53.302;-6.362;2023-05-29T07:55:12;5.38;;;2.17;;
37787;SDS011;23627;53.302;-6.362;2023-05-29T07:57:38;6.20;;;2.50;;
37787;SDS011;23627;53.302;-6.362;2023-05-29T08:00:04;5.05;;;2.58;;
37787;SDS011;23627;53.302;-6.362;2023-05-29T08:02:51;6.82;;;2.63;;
37787;SDS011;23627;53.302;-6.362;2023-05-29T08:07:57;5.93;;;2.80;;
37787;SDS011;23627;53.302;-6.362;2023-05-29T08:10:24;5.07;;;2.38;;
37787;SDS011;23627;53.302;-6.362;2023-05-29T08:12:50;7.18;;;2.60;;
37787;SDS011;23627;53.302;-6.362;2023-05-29T08:15:17;6.43;;;2.47;;
37787;SDS011;23627;53.302;-6.362;2023-05-29T08:17:47;5.13;;;2.60;;
37787;SDS011;23627;53.302;-6.362;2023-05-29T08:20:13;6.32;;;3.05;;
37787;SDS011;23627;53.302;-6.362;2023-05-29T08:22:39;6.78;;;3.35;;
37787;SDS011;23627;53.302;-6.362;2023-05-29T08:25:05;7.82;;;3.17;;
37787;SDS011;23627;53.302;-6.362;2023-05-29T08:27:33;6.60;;;3.00;;
37787;SDS011;23627;53.302;-6.362;2023-05-29T08:29:59;8.70;;;2.80;;
37787;SDS011;23627;53.302;-6.362;2023-05-29T08:32:25;6.93;;;3.08;;
37787;SDS011;23627;53.302;-6.362;2023-05-29T08:34:51;6.68;;;2.80;;
37787;SDS011;23627;53.302;-6.362;2023-05-29T08:37:16;7.05;;;3.03;;
37787;SDS011;23627;53.302;-6.362;2023-05-29T08:39:42;7.60;;;2.83;;
37787;SDS011;23627;53.302;-6.362;2023-05-29T08:42:10;7.82;;;2.70;;
37787;SDS011;23627;53.302;-6.362;2023-05-29T08:44:40;7.32;;;2.78;;
37787;SDS011;23627;53.302;-6.362;2023-05-29T08:49:43;6.28;;;2.88;;
37787;SDS011;23627;53.302;-6.362;2023-05-29T08:52:15;5.28;;;2.65;;
37787;SDS011;23627;53.302;-6.362;2023-05-29T08:54:42;8.48;;;2.55;;
37787;SDS011;23627;53.302;-6.362;2023-05-29T08:57:09;7.78;;;2.85;;
37787;SDS011;23627;53.302;-6.362;2023-05-29T08:59:36;7.50;;;3.10;;
37787;SDS011;23627;53.302;-6.362;2023-05-29T09:02:04;6.65;;;2.58;;
37787;SDS011;23627;53.302;-6.362;2023-05-29T09:04:30;5.57;;;2.45;;
37787;SDS011;23627;53.302;-6.362;2023-05-29T09:06:57;6.22;;;2.58;;
37787;SDS011;23627;53.302;-6.362;2023-05-29T09:09:24;4.00;;;2.58;;
37787;SDS011;23627;53.302;-6.362;2023-05-29T09:12:05;4.80;;;2.42;;
37787;SDS011;23627;53.302;-6.362;2023-05-29T09:14:43;5.78;;;2.75;;
37787;SDS011;23627;53.302;-6.362;2023-05-29T09:17:10;5.45;;;2.30;;
37787;SDS011;23627;53.302;-6.362;2023-05-29T09:19:40;6.18;;;2.40;;
37787;SDS011;23627;53.302;-6.362;2023-05-29T09:22:10;4.18;;;1.90;;
37787;SDS011;23627;53.302;-6.362;2023-05-29T09:24:41;5.43;;;2.13;;
37787;SDS011;23627;53.302;-6.362;2023-05-29T09:27:16;5.85;;;2.40;;
37787;SDS011;23627;53.302;-6.362;2023-05-29T09:29:43;5.90;;;2.38;;
37787;SDS011;23627;53.302;-6.362;2023-05-29T09:32:11;4.22;;;2.10;;
37787;SDS011;23627;53.302;-6.362;2023-05-29T09:34:39;4.32;;;2.20;;
37787;SDS011;23627;53.302;-6.362;2023-05-29T09:37:06;6.53;;;2.20;;
37787;SDS011;23627;53.302;-6.362;2023-05-29T09:42:13;4.93;;;2.00;;
37787;SDS011;23627;53.302;-6.362;2023-05-29T09:44:40;5.50;;;2.22;;
37787;SDS011;23627;53.302;-6.362;2023-05-29T09:47:06;4.95;;;2.00;;
37787;SDS011;23627;53.302;-6.362;2023-05-29T09:49:32;6.25;;;1.90;;
37787;SDS011;23627;53.302;-6.362;2023-05-29T09:51:58;4.28;;;1.90;;
37787;SDS011;23627;53.302;-6.362;2023-05-29T09:54:26;5.70;;;1.92;;
37787;SDS011;23627;53.302;-6.362;2023-05-29T09:56:56;6.63;;;1.90;;
37787;SDS011;23627;53.302;-6.362;2023-05-29T09:59:23;5.40;;;1.88;;
37787;SDS011;23627;53.302;-6.362;2023-05-29T10:02:00;4.63;;;2.00;;
37787;SDS011;23627;53.302;-6.362;2023-05-29T10:04:29;5.25;;;2.15;;
37787;SDS011;23627;53.302;-6.362;2023-05-29T10:06:57;6.63;;;2.22;;
37787;SDS011;23627;53.302;-6.362;2023-05-29T10:09:47;6.65;;;2.08;;
37787;SDS011;23627;53.302;-6.362;2023-05-29T10:12:26;6.88;;;2.20;;
37787;SDS011;23627;53.302;-6.362;2023-05-29T10:14:54;6.13;;;2.22;;
37787;SDS011;23627;53.302;-6.362;2023-05-29T10:17:27;5.38;;;1.90;;
37787;SDS011;23627;53.302;-6.362;2023-05-29T10:20:10;6.10;;;1.98;;
37787;SDS011;23627;53.302;-6.362;2023-05-29T10:22:42;5.05;;;1.70;;
37787;SDS011;23627;53.302;-6.362;2023-05-29T10:25:13;6.10;;;1.58;;
37787;SDS011;23627;53.302;-6.362;2023-05-29T10:27:42;7.20;;;1.90;;
37787;SDS011;23627;53.302;-6.362;2023-05-29T10:30:10;4.93;;;1.70;;
37787;SDS011;23627;53.302;-6.362;2023-05-29T10:35:37;4.72;;;1.58;;
37787;SDS011;23627;53.302;-6.362;2023-05-29T10:38:16;6.20;;;1.70;;
37787;SDS011;23627;53.302;-6.362;2023-05-29T10:40:43;5.93;;;2.15;;
37787;SDS011;23627;53.302;-6.362;2023-05-29T10:43:29;6.10;;;1.98;;
37787;SDS011;23627;53.302;-6.362;2023-05-29T10:45:57;5.28;;;1.80;;
37787;SDS011;23627;53.302;-6.362;2023-05-29T10:50:53;5.53;;;1.83;;
37787;SDS011;23627;53.302;-6.362;2023-05-29T10:53:24;3.83;;;1.63;;
37787;SDS011;23627;53.302;-6.362;2023-05-29T10:55:52;4.78;;;1.83;;
37787;SDS011;23627;53.302;-6.362;2023-05-29T10:58:18;5.75;;;2.13;;
37787;SDS011;23627;53.302;-6.362;2023-05-29T11:00:46;5.13;;;1.90;;
37787;SDS011;23627;53.302;-6.362;2023-05-29T11:03:17;4.50;;;1.73;;
37787;SDS011;23627;53.302;-6.362;2023-05-29T11:08:53;4.18;;;1.60;;
37787;SDS011;23627;53.302;-6.362;2023-05-29T11:11:32;4.85;;;1.58;;
37787;SDS011;23627;53.302;-6.362;2023-05-29T11:14:04;4.70;;;1.45;;
37787;SDS011;23627;53.302;-6.362;2023-05-29T11:18:57;5.78;;;1.98;;
37787;SDS011;23627;53.302;-6.362;2023-05-29T11:24:27;6.32;;;1.65;;
37787;SDS011;23627;53.302;-6.362;2023-05-29T11:26:57;3.15;;;1.42;;
37787;SDS011;23627;53.302;-6.362;2023-05-29T11:29:29;5.07;;;1.70;;
37787;SDS011;23627;53.302;-6.362;2023-05-29T11:31:58;5.70;;;1.90;;
37787;SDS011;23627;53.302;-6.362;2023-05-29T11:34:28;6.60;;;2.22;;
37787;SDS011;23627;53.302;-6.362;2023-05-29T11:36:56;5.30;;;1.40;;
37787;SDS011;23627;53.302;-6.362;2023-05-29T11:39:23;4.05;;;1.67;;
37787;SDS011;23627;53.302;-6.362;2023-05-29T11:41:52;4.55;;;1.67;;
37787;SDS011;23627;53.302;-6.362;2023-05-29T11:44:18;3.80;;;1.60;;
37787;SDS011;23627;53.302;-6.362;2023-05-29T11:46:45;5.43;;;1.80;;
37787;SDS011;23627;53.302;-6.362;2023-05-29T11:49:10;2.92;;;1.50;;
37787;SDS011;23627;53.302;-6.362;2023-05-29T11:51:36;4.22;;;1.50;;
37787;SDS011;23627;53.302;-6.362;2023-05-29T11:54:02;4.88;;;1.75;;
37787;SDS011;23627;53.302;-6.362;2023-05-29T11:56:28;5.65;;;1.75;;
37787;SDS011;23627;53.302;-6.362;2023-05-29T11:58:55;5.28;;;1.58;;
37787;SDS011;23627;53.302;-6.362;2023-05-29T12:01:25;5.57;;;1.90;;
37787;SDS011;23627;53.302;-6.362;2023-05-29T12:03:51;4.90;;;1.85;;
37787;SDS011;23627;53.302;-6.362;2023-05-29T12:06:31;5.07;;;1.73;;
37787;SDS011;23627;53.302;-6.362;2023-05-29T12:08:58;4.32;;;1.35;;
37787;SDS011;23627;53.302;-6.362;2023-05-29T12:11:24;8.23;;;1.80;;
37787;SDS011;23627;53.302;-6.362;2023-05-29T12:14:00;4.32;;;1.60;;
37787;SDS011;23627;53.302;-6.362;2023-05-29T12:16:30;4.07;;;1.63;;
37787;SDS011;23627;53.302;-6.362;2023-05-29T12:18:58;4.63;;;1.52;;
37787;SDS011;23627;53.302;-6.362;2023-05-29T12:21:24;4.97;;;1.33;;
37787;SDS011;23627;53.302;-6.362;2023-05-29T12:23:53;3.47;;;1.67;;
37787;SDS011;23627;53.302;-6.362;2023-05-29T12:26:23;3.65;;;1.40;;
37787;SDS011;23627;53.302;-6.362;2023-05-29T12:28:51;3.30;;;1.48;;
37787;SDS011;23627;53.302;-6.362;2023-05-29T12:31:29;5.88;;;1.80;;
37787;SDS011;23627;53.302;-6.362;2023-05-29T12:34:07;4.72;;;1.50;;
37787;SDS011;23627;53.302;-6.362;2023-05-29T12:36:34;5.28;;;1.77;;
37787;SDS011;23627;53.302;-6.362;2023-05-29T12:38:59;5.43;;;1.95;;
37787;SDS011;23627;53.302;-6.362;2023-05-29T12:41:34;6.93;;;1.73;;
37787;SDS011;23627;53.302;-6.362;2023-05-29T12:44:02;5.38;;;1.70;;
37787;SDS011;23627;53.302;-6.362;2023-05-29T12:46:39;4.40;;;1.65;;
37787;SDS011;23627;53.302;-6.362;2023-05-29T12:49:16;3.85;;;1.60;;
37787;SDS011;23627;53.302;-6.362;2023-05-29T12:51:46;3.58;;;1.55;;
37787;SDS011;23627;53.302;-6.362;2023-05-29T12:54:12;4.00;;;1.65;;
37787;SDS011;23627;53.302;-6.362;2023-05-29T12:56:39;3.60;;;1.45;;
37787;SDS011;23627;53.302;-6.362;2023-05-29T12:59:09;5.80;;;1.90;;
37787;SDS011;23627;53.302;-6.362;2023-05-29T13:01:36;5.65;;;1.70;;
37787;SDS011;23627;53.302;-6.362;2023-05-29T13:04:03;6.68;;;1.92;;
37787;SDS011;23627;53.302;-6.362;2023-05-29T13:06:32;4.53;;;1.85;;
37787;SDS011;23627;53.302;-6.362;2023-05-29T13:09:02;3.83;;;1.95;;
37787;SDS011;23627;53.302;-6.362;2023-05-29T13:11:28;5.55;;;1.90;;
37787;SDS011;23627;53.302;-6.362;2023-05-29T13:17:16;4.30;;;1.65;;
37787;SDS011;23627;53.302;-6.362;2023-05-29T13:19:42;6.45;;;2.15;;
37787;SDS011;23627;53.302;-6.362;2023-05-29T13:22:08;5.63;;;1.85;;
37787;SDS011;23627;53.302;-6.362;2023-05-29T13:24:34;5.22;;;1.80;;
37787;SDS011;23627;53.302;-6.362;2023-05-29T13:27:00;5.82;;;1.80;;
37787;SDS011;23627;53.302;-6.362;2023-05-29T13:29:26;4.47;;;1.92;;
37787;SDS011;23627;53.302;-6.362;2023-05-29T13:31:52;6.28;;;1.90;;
37787;SDS011;23627;53.302;-6.362;2023-05-29T13:34:17;12.55;;;2.72;;
37787;SDS011;23627;53.302;-6.362;2023-05-29T13:36:43;7.72;;;2.10;;
37787;SDS011;23627;53.302;-6.362;2023-05-29T13:39:12;8.27;;;1.92;;
37787;SDS011;23627;53.302;-6.362;2023-05-29T13:41:38;8.73;;;2.83;;
37787;SDS011;23627;53.302;-6.362;2023-05-29T13:44:03;7.30;;;2.25;;
37787;SDS011;23627;53.302;-6.362;2023-05-29T13:46:29;6.38;;;2.08;;
37787;SDS011;23627;53.302;-6.362;2023-05-29T13:48:55;6.30;;;2.33;;
37787;SDS011;23627;53.302;-6.362;2023-05-29T13:51:21;10.30;;;2.50;;
37787;SDS011;23627;53.302;-6.362;2023-05-29T13:53:46;6.68;;;2.58;;
37787;SDS011;23627;53.302;-6.362;2023-05-29T13:56:12;9.90;;;2.60;;
37787;SDS011;23627;53.302;-6.362;2023-05-29T13:58:38;8.38;;;2.35;;
37787;SDS011;23627;53.302;-6.362;2023-05-29T14:01:04;9.13;;;2.63;;
37787;SDS011;23627;53.302;-6.362;2023-05-29T14:03:29;7.55;;;2.17;;
37787;SDS011;23627;53.302;-6.362;2023-05-29T14:05:56;7.00;;;2.05;;
37787;SDS011;23627;53.302;-6.362;2023-05-29T14:08:22;6.80;;;2.40;;
37787;SDS011;23627;53.302;-6.362;2023-05-29T14:10:48;9.18;;;2.72;;
37787;SDS011;23627;53.302;-6.362;2023-05-29T14:13:15;9.68;;;2.33;;
37787;SDS011;23627;53.302;-6.362;2023-05-29T14:15:41;11.35;;;2.50;;
37787;SDS011;23627;53.302;-6.362;2023-05-29T14:18:07;7.15;;;2.10;;
37787;SDS011;23627;53.302;-6.362;2023-05-29T14:20:33;6.18;;;2.38;;
37787;SDS011;23627;53.302;-6.362;2023-05-29T14:22:59;7.75;;;2.30;;
37787;SDS011;23627;53.302;-6.362;2023-05-29T14:25:25;8.65;;;2.40;;
37787;SDS011;23627;53.302;-6.362;2023-05-29T14:27:50;6.88;;;2.35;;
37787;SDS011;23627;53.302;-6.362;2023-05-29T14:30:17;9.35;;;2.40;;
37787;SDS011;23627;53.302;-6.362;2023-05-29T14:32:43;7.07;;;2.30;;
37787;SDS011;23627;53.302;-6.362;2023-05-29T14:35:09;6.47;;;2.00;;
37787;SDS011;23627;53.302;-6.362;2023-05-29T14:37:35;10.10;;;2.35;;
37787;SDS011;23627;53.302;-6.362;2023-05-29T14:40:01;5.97;;;2.13;;
37787;SDS011;23627;53.302;-6.362;2023-05-29T14:42:27;7.80;;;2.33;;
37787;SDS011;23627;53.302;-6.362;2023-05-29T14:44:59;4.68;;;1.80;;
37787;SDS011;23627;53.302;-6.362;2023-05-29T14:47:25;5.20;;;1.73;;
37787;SDS011;23627;53.302;-6.362;2023-05-29T14:49:50;6.93;;;1.90;;
37787;SDS011;23627;53.302;-6.362;2023-05-29T14:52:19;6.72;;;1.90;;
37787;SDS011;23627;53.302;-6.362;2023-05-29T14:54:45;6.32;;;1.98;;
37787;SDS011;23627;53.302;-6.362;2023-05-29T14:57:11;5.65;;;1.95;;
37787;SDS011;23627;53.302;-6.362;2023-05-29T14:59:36;4.38;;;1.77;;
37787;SDS011;23627;53.302;-6.362;2023-05-29T15:02:02;5.10;;;1.77;;
37787;SDS011;23627;53.302;-6.362;2023-05-29T15:04:28;3.83;;;1.60;;
37787;SDS011;23627;53.302;-6.362;2023-05-29T15:06:54;5.47;;;1.92;;